sensor_id;sensor_type;location;lat;lon;timestamp;pressure;altitude;pressure_sealevel;temperature;humidity
48015;BME280;33780;51.034;7.120;2023-05-23T00:00:17;100856.66;;;19.04;64.07
48015;BME280;33780;51.034;7.120;2023-05-23T00:02:43;100852.22;;;19.02;64.41
48015;BME280;33780;51.034;7.120;2023-05-23T00:05:08;100854.09;;;19.02;64.46
48015;BME280;33780;51.034;7.120;2023-05-23T00:07:34;100844.28;;;19.01;64.64
48015;BME280;33780;51.034;7.120;2023-05-23T00:09:59;100846.16;;;19.00;64.54
48015;BME280;33780;51.034;7.120;2023-05-23T00:12:24;100840.91;;;18.99;64.66
48015;BME280;33780;51.034;7.120;2023-05-23T00:14:50;100830.25;;;18.97;64.49
48015;BME280;33780;51.034;7.120;2023-05-23T00:17:17;100832.13;;;18.97;64.40
48015;BME280;33780;51.034;7.120;2023-05-23T00:19:43;100827.72;;;18.96;64.44
48015;BME280;33780;51.034;7.120;2023-05-23T00:22:11;100830.44;;;18.96;64.86
48015;BME280;33780;51.034;7.120;2023-05-23T00:24:36;100829.59;;;18.95;64.59
48015;BME280;33780;51.034;7.120;2023-05-23T00:27:02;100839.97;;;18.92;64.72
48015;BME280;33780;51.034;7.120;2023-05-23T00:29:27;100851.19;;;18.89;65.10
48015;BME280;33780;51.034;7.120;2023-05-23T00:31:52;100856.59;;;18.89;64.92
48015;BME280;33780;51.034;7.120;2023-05-23T00:34:18;100847.63;;;18.88;64.89
48015;BME280;33780;51.034;7.120;2023-05-23T00:36:43;100853.06;;;18.88;64.76
48015;BME280;33780;51.034;7.120;2023-05-23T00:39:11;100848.66;;;18.87;65.04
48015;BME280;33780;51.034;7.120;2023-05-23T00:41:47;100851.38;;;18.87;65.16
48015;BME280;33780;51.034;7.120;2023-05-23T00:44:12;100851.56;;;18.86;65.10
48015;BME280;33780;51.034;7.120;2023-05-23T00:46:38;100848.84;;;18.86;65.29
48015;BME280;33780;51.034;7.120;2023-05-23T00:49:04;100855.94;;;18.87;65.26
48015;BME280;33780;51.034;7.120;2023-05-23T00:51:29;100861.56;;;18.85;65.53
48015;BME280;33780;51.034;7.120;2023-05-23T00:53:58;100854.41;;;18.84;65.15
48015;BME280;33780;51.034;7.120;2023-05-23T00:56:25;100853.94;;;18.81;65.25
48015;BME280;33780;51.034;7.120;2023-05-23T00:58:52;100852.25;;;18.80;65.40
48015;BME280;33780;51.034;7.120;2023-05-23T01:01:18;100859.00;;;18.84;65.27
48015;BME280;33780;51.034;7.120;2023-05-23T01:03:43;100858.84;;;18.85;65.05
48015;BME280;33780;51.034;7.120;2023-05-23T01:06:10;100858.84;;;18.85;65.03
48015;BME280;33780;51.034;7.120;2023-05-23T01:08:35;100864.78;;;18.81;64.47
48015;BME280;33780;51.034;7.120;2023-05-23T01:11:05;100863.84;;;18.74;64.31
48015;BME280;33780;51.034;7.120;2023-05-23T01:13:46;100870.16;;;18.66;64.68
48015;BME280;33780;51.034;7.120;2023-05-23T01:16:16;100863.22;;;18.63;64.46
48015;BME280;33780;51.034;7.120;2023-05-23T01:21:52;100872.06;;;18.57;64.60
48015;BME280;33780;51.034;7.120;2023-05-23T01:24:33;100866.81;;;18.56;65.00
48015;BME280;33780;51.034;7.120;2023-05-23T01:27:07;100863.09;;;18.57;65.08
48015;BME280;33780;51.034;7.120;2023-05-23T01:29:37;100868.97;;;18.60;64.68
48015;BME280;33780;51.034;7.120;2023-05-23T01:32:08;100872.22;;;18.64;64.51
48015;BME280;33780;51.034;7.120;2023-05-23T01:34:35;100862.88;;;18.66;64.65
48015;BME280;33780;51.034;7.120;2023-05-23T01:37:00;100861.88;;;18.67;64.40
48015;BME280;33780;51.034;7.120;2023-05-23T01:39:29;100861.88;;;18.67;63.75
48015;BME280;33780;51.034;7.120;2023-05-23T01:41:54;100853.75;;;18.67;64.23
48015;BME280;33780;51.034;7.120;2023-05-23T01:44:20;100860.84;;;18.68;64.32
48015;BME280;33780;51.034;7.120;2023-05-23T01:46:46;100872.34;;;18.70;64.13
48015;BME280;33780;51.034;7.120;2023-05-23T01:49:13;100874.22;;;18.70;64.10
48015;BME280;33780;51.034;7.120;2023-05-23T01:51:40;100876.41;;;18.66;63.66
48015;BME280;33780;51.034;7.120;2023-05-23T01:54:05;100878.66;;;18.63;63.35
48015;BME280;33780;51.034;7.120;2023-05-23T01:56:32;100879.16;;;18.58;63.54
48015;BME280;33780;51.034;7.120;2023-05-23T01:58:57;100890.38;;;18.55;63.41
48015;BME280;33780;51.034;7.120;2023-05-23T02:01:22;100890.38;;;18.55;63.35
48015;BME280;33780;51.034;7.120;2023-05-23T02:03:48;100894.81;;;18.48;63.03
48015;BME280;33780;51.034;7.120;2023-05-23T02:06:14;100895.78;;;18.32;62.96
48015;BME280;33780;51.034;7.120;2023-05-23T02:08:39;100900.56;;;18.22;63.26
48015;BME280;33780;51.034;7.120;2023-05-23T02:11:05;100901.75;;;18.20;63.12
48015;BME280;33780;51.034;7.120;2023-05-23T02:13:35;100899.03;;;18.20;63.24
48015;BME280;33780;51.034;7.120;2023-05-23T02:16:01;100903.63;;;18.19;63.41
48015;BME280;33780;51.034;7.120;2023-05-23T02:18:26;100897.84;;;18.22;63.35
48015;BME280;33780;51.034;7.120;2023-05-23T02:20:53;100900.69;;;18.29;63.40
48015;BME280;33780;51.034;7.120;2023-05-23T02:23:20;100900.16;;;18.33;63.28
48015;BME280;33780;51.034;7.120;2023-05-23T02:25:45;100903.53;;;18.35;63.17
48015;BME280;33780;51.034;7.120;2023-05-23T02:28:10;100901.84;;;18.34;62.95
48015;BME280;33780;51.034;7.120;2023-05-23T02:30:37;100901.69;;;18.36;62.96
48015;BME280;33780;51.034;7.120;2023-05-23T02:33:06;100908.59;;;18.38;63.06
48015;BME280;33780;51.034;7.120;2023-05-23T02:35:32;100907.41;;;18.41;62.53
48015;BME280;33780;51.034;7.120;2023-05-23T02:37:57;100905.41;;;18.35;62.44
48015;BME280;33780;51.034;7.120;2023-05-23T02:40:22;100908.16;;;18.27;62.83
48015;BME280;33780;51.034;7.120;2023-05-23T02:42:48;100904.59;;;18.26;62.89
48015;BME280;33780;51.034;7.120;2023-05-23T02:45:15;100901.56;;;18.21;62.92
48015;BME280;33780;51.034;7.120;2023-05-23T02:47:40;100902.25;;;18.23;63.19
48015;BME280;33780;51.034;7.120;2023-05-23T02:50:06;100910.19;;;18.25;63.25
48015;BME280;33780;51.034;7.120;2023-05-23T02:52:31;100909.69;;;18.21;62.98
48015;BME280;33780;51.034;7.120;2023-05-23T02:54:57;100901.56;;;18.21;62.99
48015;BME280;33780;51.034;7.120;2023-05-23T02:57:22;100902.91;;;18.25;63.06
48015;BME280;33780;51.034;7.120;2023-05-23T02:59:47;100902.06;;;18.25;63.32
48015;BME280;33780;51.034;7.120;2023-05-23T03:02:12;100901.41;;;18.23;63.00
48015;BME280;33780;51.034;7.120;2023-05-23T03:04:38;100901.56;;;18.21;63.20
48015;BME280;33780;51.034;7.120;2023-05-23T03:07:03;100897.66;;;18.24;63.18
48015;BME280;33780;51.034;7.120;2023-05-23T03:09:30;100906.28;;;18.27;63.24
48015;BME280;33780;51.034;7.120;2023-05-23T03:11:56;100906.28;;;18.27;63.13
48015;BME280;33780;51.034;7.120;2023-05-23T03:14:21;100904.28;;;18.21;63.26
48015;BME280;33780;51.034;7.120;2023-05-23T03:16:46;100909.22;;;18.18;63.51
48015;BME280;33780;51.034;7.120;2023-05-23T03:19:12;100903.81;;;18.18;63.75
48015;BME280;33780;51.034;7.120;2023-05-23T03:21:37;100907.19;;;18.20;63.21
48015;BME280;33780;51.034;7.120;2023-05-23T03:24:03;100909.88;;;18.20;63.36
48015;BME280;33780;51.034;7.120;2023-05-23T03:26:28;100914.28;;;18.21;63.65
48015;BME280;33780;51.034;7.120;2023-05-23T03:28:53;100917.00;;;18.21;63.63
48015;BME280;33780;51.034;7.120;2023-05-23T03:31:19;100920.72;;;18.20;63.72
48015;BME280;33780;51.034;7.120;2023-05-23T03:33:44;100923.25;;;18.21;64.12
48015;BME280;33780;51.034;7.120;2023-05-23T03:36:09;100921.06;;;18.17;63.93
48015;BME280;33780;51.034;7.120;2023-05-23T03:38:35;100922.97;;;18.08;64.39
48015;BME280;33780;51.034;7.120;2023-05-23T03:41:00;100926.03;;;18.05;64.27
48015;BME280;33780;51.034;7.120;2023-05-23T03:43:25;100925.84;;;18.06;64.13
48015;BME280;33780;51.034;7.120;2023-05-23T03:45:51;100926.69;;;18.07;64.38
48015;BME280;33780;51.034;7.120;2023-05-23T03:48:16;100926.19;;;18.03;64.48
48015;BME280;33780;51.034;7.120;2023-05-23T03:50:41;100922.81;;;18.01;64.15
48015;BME280;33780;51.034;7.120;2023-05-23T03:53:07;100925.72;;;18.00;64.38
48015;BME280;33780;51.034;7.120;2023-05-23T03:55:35;100921.81;;;17.94;65.07
48015;BME280;33780;51.034;7.120;2023-05-23T03:58:00;100924.53;;;17.94;64.67
48015;BME280;33780;51.034;7.120;2023-05-23T04:00:25;100930.63;;;17.96;64.88
48015;BME280;33780;51.034;7.120;2023-05-23T04:02:51;100928.06;;;17.95;64.95
48015;BME280;33780;51.034;7.120;2023-05-23T04:05:17;100936.56;;;17.92;65.00
48015;BME280;33780;51.034;7.120;2023-05-23T04:07:43;100931.31;;;17.90;65.31
48015;BME280;33780;51.034;7.120;2023-05-23T04:10:09;100925.53;;;17.93;65.24
48015;BME280;33780;51.034;7.120;2023-05-23T04:12:34;100929.94;;;17.94;65.29
48015;BME280;33780;51.034;7.120;2023-05-23T04:15:00;100931.63;;;17.95;65.47
48015;BME280;33780;51.034;7.120;2023-05-23T04:17:25;100942.63;;;17.94;65.76
48015;BME280;33780;51.034;7.120;2023-05-23T04:19:54;100939.31;;;17.84;65.61
48015;BME280;33780;51.034;7.120;2023-05-23T04:22:20;100942.19;;;17.82;65.81
48015;BME280;33780;51.034;7.120;2023-05-23T04:24:45;100949.97;;;17.85;65.54
48015;BME280;33780;51.034;7.120;2023-05-23T04:27:10;100949.44;;;17.90;65.39
48015;BME280;33780;51.034;7.120;2023-05-23T04:29:37;100949.44;;;17.90;65.10
48015;BME280;33780;51.034;7.120;2023-05-23T04:32:04;100959.41;;;17.89;65.39
48015;BME280;33780;51.034;7.120;2023-05-23T04:34:30;100958.56;;;17.89;65.28
48015;BME280;33780;51.034;7.120;2023-05-23T04:36:58;100960.25;;;17.90;65.38
48015;BME280;33780;51.034;7.120;2023-05-23T04:39:25;100956.75;;;17.81;65.60
48015;BME280;33780;51.034;7.120;2023-05-23T04:41:51;100967.41;;;17.74;65.79
48015;BME280;33780;51.034;7.120;2023-05-23T04:44:18;100968.59;;;17.72;65.99
48015;BME280;33780;51.034;7.120;2023-05-23T04:46:44;100970.81;;;17.68;66.03
48015;BME280;33780;51.034;7.120;2023-05-23T04:49:10;100976.22;;;17.68;66.72
48015;BME280;33780;51.034;7.120;2023-05-23T04:51:36;100971.63;;;17.61;66.64
48015;BME280;33780;51.034;7.120;2023-05-23T04:54:02;100971.78;;;17.59;66.91
48015;BME280;33780;51.034;7.120;2023-05-23T04:56:27;100977.03;;;17.52;66.98
48015;BME280;33780;51.034;7.120;2023-05-23T04:58:53;100982.47;;;17.52;67.58
48015;BME280;33780;51.034;7.120;2023-05-23T05:01:19;100977.72;;;17.55;67.74
48015;BME280;33780;51.034;7.120;2023-05-23T05:03:44;100985.16;;;17.52;68.18
48015;BME280;33780;51.034;7.120;2023-05-23T05:06:10;100985.69;;;17.48;68.13
48015;BME280;33780;51.034;7.120;2023-05-23T05:08:35;100984.84;;;17.47;68.06
48015;BME280;33780;51.034;7.120;2023-05-23T05:11:01;100983.66;;;17.50;68.26
48015;BME280;33780;51.034;7.120;2023-05-23T05:13:26;100984.16;;;17.53;68.09
48015;BME280;33780;51.034;7.120;2023-05-23T05:15:51;100981.25;;;17.55;67.71
48015;BME280;33780;51.034;7.120;2023-05-23T05:18:17;100979.41;;;17.56;68.04
48015;BME280;33780;51.034;7.120;2023-05-23T05:20:42;100983.13;;;17.55;67.94
48015;BME280;33780;51.034;7.120;2023-05-23T05:23:07;100981.94;;;17.57;68.05
48015;BME280;33780;51.034;7.120;2023-05-23T05:25:34;100987.19;;;17.59;68.28
48015;BME280;33780;51.034;7.120;2023-05-23T05:28:01;100988.19;;;17.58;68.30
48015;BME280;33780;51.034;7.120;2023-05-23T05:30:30;100991.06;;;17.56;68.29
48015;BME280;33780;51.034;7.120;2023-05-23T05:32:55;100997.16;;;17.58;68.12
48015;BME280;33780;51.034;7.120;2023-05-23T05:35:22;100999.56;;;17.61;67.97
48015;BME280;33780;51.034;7.120;2023-05-23T05:37:47;101007.31;;;17.64;67.96
48015;BME280;33780;51.034;7.120;2023-05-23T05:40:12;101001.72;;;17.66;68.00
48015;BME280;33780;51.034;7.120;2023-05-23T05:42:37;101006.00;;;17.68;68.02
48015;BME280;33780;51.034;7.120;2023-05-23T05:45:03;101006.50;;;17.72;67.97
48015;BME280;33780;51.034;7.120;2023-05-23T05:47:28;101002.75;;;17.73;68.14
48015;BME280;33780;51.034;7.120;2023-05-23T05:49:54;100999.88;;;17.74;68.04
48015;BME280;33780;51.034;7.120;2023-05-23T05:52:20;101010.41;;;17.77;68.07
48015;BME280;33780;51.034;7.120;2023-05-23T05:54:45;101004.97;;;17.77;68.16
48015;BME280;33780;51.034;7.120;2023-05-23T05:57:10;101010.41;;;17.77;68.58
48015;BME280;33780;51.034;7.120;2023-05-23T05:59:35;101012.75;;;17.72;67.98
48015;BME280;33780;51.034;7.120;2023-05-23T06:02:01;101015.97;;;17.68;68.04
48015;BME280;33780;51.034;7.120;2023-05-23T06:04:26;101018.50;;;17.61;68.18
48015;BME280;33780;51.034;7.120;2023-05-23T06:06:51;101018.81;;;17.58;68.17
48015;BME280;33780;51.034;7.120;2023-05-23T06:09:17;101015.78;;;17.53;68.22
48015;BME280;33780;51.034;7.120;2023-05-23T06:11:42;101018.47;;;17.53;68.07
48015;BME280;33780;51.034;7.120;2023-05-23T06:14:07;101020.34;;;17.52;68.20
48015;BME280;33780;51.034;7.120;2023-05-23T06:16:32;101015.09;;;17.51;68.26
48015;BME280;33780;51.034;7.120;2023-05-23T06:18:58;101016.63;;;17.53;68.22
48015;BME280;33780;51.034;7.120;2023-05-23T06:21:23;101016.28;;;17.57;68.38
48015;BME280;33780;51.034;7.120;2023-05-23T06:23:48;101025.41;;;17.56;67.87
48015;BME280;33780;51.034;7.120;2023-05-23T06:26:13;101024.91;;;17.52;68.04
48015;BME280;33780;51.034;7.120;2023-05-23T06:28:39;101028.63;;;17.51;68.22
48015;BME280;33780;51.034;7.120;2023-05-23T06:31:04;101027.78;;;17.50;68.20
48015;BME280;33780;51.034;7.120;2023-05-23T06:33:31;101027.97;;;17.49;68.41
48015;BME280;33780;51.034;7.120;2023-05-23T06:35:56;101028.13;;;17.31;68.94
48015;BME280;33780;51.034;7.120;2023-05-23T06:38:21;101029.28;;;17.20;68.79
48015;BME280;33780;51.034;7.120;2023-05-23T06:40:47;101028.59;;;17.18;69.31
48015;BME280;33780;51.034;7.120;2023-05-23T06:43:12;101030.47;;;17.18;69.18
48015;BME280;33780;51.034;7.120;2023-05-23T06:45:37;101030.13;;;17.21;69.14
48015;BME280;33780;51.034;7.120;2023-05-23T06:48:03;101025.56;;;17.21;69.06
48015;BME280;33780;51.034;7.120;2023-05-23T06:50:29;101034.03;;;17.27;68.64
48015;BME280;33780;51.034;7.120;2023-05-23T06:53:03;101039.28;;;17.28;69.04
48015;BME280;33780;51.034;7.120;2023-05-23T06:55:29;101037.41;;;17.29;68.82
48015;BME280;33780;51.034;7.120;2023-05-23T06:57:54;101041.66;;;17.31;68.89
48015;BME280;33780;51.034;7.120;2023-05-23T07:00:20;101046.88;;;17.33;68.79
48015;BME280;33780;51.034;7.120;2023-05-23T07:02:46;101043.84;;;17.36;68.61
48015;BME280;33780;51.034;7.120;2023-05-23T07:05:13;101038.25;;;17.37;68.47
48015;BME280;33780;51.034;7.120;2023-05-23T07:07:39;101055.00;;;17.41;68.58
48015;BME280;33780;51.034;7.120;2023-05-23T07:10:04;101055.53;;;17.44;68.47
48015;BME280;33780;51.034;7.120;2023-05-23T07:12:33;101059.25;;;17.43;68.50
48015;BME280;33780;51.034;7.120;2023-05-23T07:14:59;101055.38;;;17.46;68.69
48015;BME280;33780;51.034;7.120;2023-05-23T07:17:24;101065.34;;;17.45;68.61
48015;BME280;33780;51.034;7.120;2023-05-23T07:19:49;101062.97;;;17.42;68.47
48015;BME280;33780;51.034;7.120;2023-05-23T07:22:15;101072.25;;;17.40;68.36
48015;BME280;33780;51.034;7.120;2023-05-23T07:24:40;101077.50;;;17.41;68.66
48015;BME280;33780;51.034;7.120;2023-05-23T07:27:05;101070.38;;;17.40;67.87
48015;BME280;33780;51.034;7.120;2023-05-23T07:29:31;101072.06;;;17.41;68.02
48015;BME280;33780;51.034;7.120;2023-05-23T07:31:56;101078.03;;;17.45;67.66
48015;BME280;33780;51.034;7.120;2023-05-23T07:34:22;101075.31;;;17.45;67.50
48015;BME280;33780;51.034;7.120;2023-05-23T07:36:48;101085.09;;;17.38;66.72
48015;BME280;33780;51.034;7.120;2023-05-23T07:39:14;101084.59;;;17.26;66.78
48015;BME280;33780;51.034;7.120;2023-05-23T07:41:39;101082.91;;;17.25;67.31
48015;BME280;33780;51.034;7.120;2023-05-23T07:44:06;101084.38;;;17.19;67.20
48015;BME280;33780;51.034;7.120;2023-05-23T07:46:31;101085.75;;;17.15;66.55
48015;BME280;33780;51.034;7.120;2023-05-23T07:48:56;101089.63;;;17.13;66.92
48015;BME280;33780;51.034;7.120;2023-05-23T07:51:24;101089.63;;;17.13;66.82
48015;BME280;33780;51.034;7.120;2023-05-23T07:53:49;101085.91;;;17.14;66.95
48015;BME280;33780;51.034;7.120;2023-05-23T07:56:15;101091.81;;;17.17;67.13
48015;BME280;33780;51.034;7.120;2023-05-23T07:58:41;101097.06;;;17.19;66.72
48015;BME280;33780;51.034;7.120;2023-05-23T08:01:06;101094.88;;;17.22;66.59
48015;BME280;33780;51.034;7.120;2023-05-23T08:03:32;101102.47;;;17.19;66.27
48015;BME280;33780;51.034;7.120;2023-05-23T08:05:57;101096.06;;;17.12;66.02
48015;BME280;33780;51.034;7.120;2023-05-23T08:08:22;101106.03;;;17.11;66.31
48015;BME280;33780;51.034;7.120;2023-05-23T08:10:48;101106.53;;;17.07;66.16
48015;BME280;33780;51.034;7.120;2023-05-23T08:13:13;101113.78;;;17.06;66.29
48015;BME280;33780;51.034;7.120;2023-05-23T08:15:38;101112.78;;;17.07;66.33
48015;BME280;33780;51.034;7.120;2023-05-23T08:18:04;101112.06;;;17.05;65.97
48015;BME280;33780;51.034;7.120;2023-05-23T08:20:32;101114.31;;;17.10;66.30
48015;BME280;33780;51.034;7.120;2023-05-23T08:23:01;101118.34;;;17.06;65.84
48015;BME280;33780;51.034;7.120;2023-05-23T08:25:27;101121.91;;;17.06;66.16
48015;BME280;33780;51.034;7.120;2023-05-23T08:27:57;101119.38;;;17.13;65.84
48015;BME280;33780;51.034;7.120;2023-05-23T08:30:23;101117.69;;;17.20;66.54
48015;BME280;33780;51.034;7.120;2023-05-23T08:32:53;101123.47;;;17.25;66.01
48015;BME280;33780;51.034;7.120;2023-05-23T08:35:20;101122.13;;;17.29;65.90
48015;BME280;33780;51.034;7.120;2023-05-23T08:37:46;101125.69;;;17.30;65.73
48015;BME280;33780;51.034;7.120;2023-05-23T08:40:19;101132.59;;;17.24;65.50
48015;BME280;33780;51.034;7.120;2023-05-23T08:42:49;101133.06;;;17.19;65.95
48015;BME280;33780;51.034;7.120;2023-05-23T08:45:15;101142.22;;;17.18;66.17
48015;BME280;33780;51.034;7.120;2023-05-23T08:47:45;101139.34;;;17.20;65.98
48015;BME280;33780;51.034;7.120;2023-05-23T08:50:12;101128.50;;;17.20;66.14
48015;BME280;33780;51.034;7.120;2023-05-23T08:52:58;101136.44;;;17.13;65.38
48015;BME280;33780;51.034;7.120;2023-05-23T08:55:26;101144.91;;;17.10;66.27
48015;BME280;33780;51.034;7.120;2023-05-23T08:57:52;101147.78;;;17.09;66.49
48015;BME280;33780;51.034;7.120;2023-05-23T09:00:18;101150.47;;;17.09;66.07
48015;BME280;33780;51.034;7.120;2023-05-23T09:02:45;101157.56;;;17.10;65.75
48015;BME280;33780;51.034;7.120;2023-05-23T09:05:11;101158.25;;;17.12;65.59
48015;BME280;33780;51.034;7.120;2023-05-23T09:07:37;101164.00;;;17.17;65.70
48015;BME280;33780;51.034;7.120;2023-05-23T09:10:04;101164.69;;;17.19;65.30
48015;BME280;33780;51.034;7.120;2023-05-23T09:12:30;101158.75;;;17.15;65.19
48015;BME280;33780;51.034;7.120;2023-05-23T09:14:57;101160.28;;;17.18;65.25
48015;BME280;33780;51.034;7.120;2023-05-23T09:17:22;101155.72;;;17.18;65.02
48015;BME280;33780;51.034;7.120;2023-05-23T09:19:48;101167.22;;;17.20;65.37
48015;BME280;33780;51.034;7.120;2023-05-23T09:22:13;101161.88;;;17.29;65.37
48015;BME280;33780;51.034;7.120;2023-05-23T09:24:38;101166.94;;;17.32;64.98
48015;BME280;33780;51.034;7.120;2023-05-23T09:27:05;101165.09;;;17.32;65.21
48015;BME280;33780;51.034;7.120;2023-05-23T09:29:31;101175.41;;;17.37;65.73
48015;BME280;33780;51.034;7.120;2023-05-23T09:32:10;101177.47;;;17.43;64.88
48015;BME280;33780;51.034;7.120;2023-05-23T09:34:39;101173.19;;;17.40;65.06
48015;BME280;33780;51.034;7.120;2023-05-23T09:37:05;101181.19;;;17.42;64.95
48015;BME280;33780;51.034;7.120;2023-05-23T09:39:30;101181.03;;;17.43;64.41
48015;BME280;33780;51.034;7.120;2023-05-23T09:41:57;101185.53;;;17.35;64.39
48015;BME280;33780;51.034;7.120;2023-05-23T09:44:23;101186.22;;;17.29;64.88
48015;BME280;33780;51.034;7.120;2023-05-23T09:46:50;101184.84;;;17.25;64.93
48015;BME280;33780;51.034;7.120;2023-05-23T09:49:17;101186.00;;;17.22;65.06
48015;BME280;33780;51.034;7.120;2023-05-23T09:51:43;101195.47;;;17.18;64.78
48015;BME280;33780;51.034;7.120;2023-05-23T09:54:08;101190.50;;;17.05;64.78
48015;BME280;33780;51.034;7.120;2023-05-23T09:56:36;101200.63;;;17.03;65.34
48015;BME280;33780;51.034;7.120;2023-05-23T09:59:04;101199.47;;;17.06;65.17
48015;BME280;33780;51.034;7.120;2023-05-23T10:01:32;101196.44;;;17.09;65.04
48015;BME280;33780;51.034;7.120;2023-05-23T10:03:58;101203.16;;;17.05;65.10
48015;BME280;33780;51.034;7.120;2023-05-23T10:06:26;101210.75;;;17.01;65.28
48015;BME280;33780;51.034;7.120;2023-05-23T10:08:57;101207.69;;;16.96;65.69
48015;BME280;33780;51.034;7.120;2023-05-23T10:14:06;101219.75;;;16.76;65.68
48015;BME280;33780;51.034;7.120;2023-05-23T10:19:34;101218.84;;;16.67;66.46
48015;BME280;33780;51.034;7.120;2023-05-23T10:22:06;101219.97;;;16.65;66.38
48015;BME280;33780;51.034;7.120;2023-05-23T10:24:33;101226.16;;;16.75;65.88
48015;BME280;33780;51.034;7.120;2023-05-23T10:26:58;101210.50;;;16.86;65.49
48015;BME280;33780;51.034;7.120;2023-05-23T10:29:24;101218.84;;;16.93;64.42
48015;BME280;33780;51.034;7.120;2023-05-23T10:31:51;101219.38;;;17.05;64.39
48015;BME280;33780;51.034;7.120;2023-05-23T10:34:40;101223.50;;;17.09;64.16
48015;BME280;33780;51.034;7.120;2023-05-23T10:37:10;101224.19;;;17.19;63.75
48015;BME280;33780;51.034;7.120;2023-05-23T10:40:02;101223.75;;;17.32;63.05
48015;BME280;33780;51.034;7.120;2023-05-23T10:42:56;101229.50;;;17.37;62.14
48015;BME280;33780;51.034;7.120;2023-05-23T10:45:25;101233.13;;;17.45;62.37
48015;BME280;33780;51.034;7.120;2023-05-23T10:47:51;101234.31;;;17.51;62.58
48015;BME280;33780;51.034;7.120;2023-05-23T10:50:34;101234.47;;;17.58;62.05
48015;BME280;33780;51.034;7.120;2023-05-23T10:53:03;101239.25;;;17.64;61.50
48015;BME280;33780;51.034;7.120;2023-05-23T10:55:34;101239.78;;;17.67;61.09
48015;BME280;33780;51.034;7.120;2023-05-23T11:00:35;101238.94;;;17.67;61.82
48015;BME280;33780;51.034;7.120;2023-05-23T11:03:04;101244.47;;;17.57;59.90
48015;BME280;33780;51.034;7.120;2023-05-23T11:05:31;101246.16;;;17.58;60.72
48015;BME280;33780;51.034;7.120;2023-05-23T11:08:11;101254.44;;;17.57;61.12
48015;BME280;33780;51.034;7.120;2023-05-23T11:11:03;101256.63;;;17.53;60.15
48015;BME280;33780;51.034;7.120;2023-05-23T11:14:07;101262.81;;;17.37;60.60
48015;BME280;33780;51.034;7.120;2023-05-23T11:16:40;101282.25;;;17.25;60.71
48015;BME280;33780;51.034;7.120;2023-05-23T11:21:45;101270.22;;;16.93;61.77
48015;BME280;33780;51.034;7.120;2023-05-23T11:24:10;101269.84;;;16.88;61.81
48015;BME280;33780;51.034;7.120;2023-05-23T11:26:36;101280.28;;;16.83;61.89
48015;BME280;33780;51.034;7.120;2023-05-23T11:29:01;101278.69;;;16.72;61.84
48015;BME280;33780;51.034;7.120;2023-05-23T11:31:29;101285.16;;;16.61;62.54
48015;BME280;33780;51.034;7.120;2023-05-23T11:33:55;101283.41;;;16.52;62.81
48015;BME280;33780;51.034;7.120;2023-05-23T11:36:21;101299.75;;;16.51;63.07
48015;BME280;33780;51.034;7.120;2023-05-23T11:38:48;101289.50;;;16.54;62.57
48015;BME280;33780;51.034;7.120;2023-05-23T11:41:16;101291.66;;;16.51;62.68
48015;BME280;33780;51.034;7.120;2023-05-23T11:43:51;101300.16;;;16.56;62.48
48015;BME280;33780;51.034;7.120;2023-05-23T11:46:16;101290.50;;;16.53;62.19
48015;BME280;33780;51.034;7.120;2023-05-23T11:48:46;101295.75;;;16.55;61.52
48015;BME280;33780;51.034;7.120;2023-05-23T11:51:11;101293.38;;;16.70;61.61
48015;BME280;33780;51.034;7.120;2023-05-23T11:53:37;101289.19;;;16.75;61.23
48015;BME280;33780;51.034;7.120;2023-05-23T11:56:02;101286.75;;;16.90;61.29
48015;BME280;33780;51.034;7.120;2023-05-23T11:58:30;101284.34;;;17.13;61.59
48015;BME280;33780;51.034;7.120;2023-05-23T12:01:07;101282.75;;;17.28;57.67
48015;BME280;33780;51.034;7.120;2023-05-23T12:03:34;101277.41;;;17.44;58.82
48015;BME280;33780;51.034;7.120;2023-05-23T12:06:08;101274.72;;;17.44;56.28
48015;BME280;33780;51.034;7.120;2023-05-23T12:08:33;101274.41;;;17.56;58.29
48015;BME280;33780;51.034;7.120;2023-05-23T12:10:59;101268.13;;;17.47;53.02
48015;BME280;33780;51.034;7.120;2023-05-23T12:13:27;101267.72;;;17.34;55.39
48015;BME280;33780;51.034;7.120;2023-05-23T12:15:58;101263.22;;;17.42;55.97
48015;BME280;33780;51.034;7.120;2023-05-23T12:18:27;101276.25;;;17.55;57.49
48015;BME280;33780;51.034;7.120;2023-05-23T12:20:53;101270.72;;;17.65;56.90
48015;BME280;33780;51.034;7.120;2023-05-23T12:23:22;101272.13;;;17.69;55.80
48015;BME280;33780;51.034;7.120;2023-05-23T12:25:51;101273.31;;;17.74;56.13
48015;BME280;33780;51.034;7.120;2023-05-23T12:28:40;101275.84;;;17.76;56.17
48015;BME280;33780;51.034;7.120;2023-05-23T12:31:15;101280.25;;;17.77;55.08
48015;BME280;33780;51.034;7.120;2023-05-23T12:34:03;101285.97;;;17.66;55.02
48015;BME280;33780;51.034;7.120;2023-05-23T12:36:36;101281.34;;;17.58;55.46
48015;BME280;33780;51.034;7.120;2023-05-23T12:39:23;101281.38;;;17.66;56.25
48015;BME280;33780;51.034;7.120;2023-05-23T12:42:05;101285.16;;;17.73;56.57
48015;BME280;33780;51.034;7.120;2023-05-23T12:44:39;101279.94;;;17.80;56.21
48015;BME280;33780;51.034;7.120;2023-05-23T12:47:08;101274.88;;;17.85;56.33
48015;BME280;33780;51.034;7.120;2023-05-23T12:49:34;101281.66;;;17.89;55.97
48015;BME280;33780;51.034;7.120;2023-05-23T12:52:00;101282.16;;;17.93;56.40
48015;BME280;33780;51.034;7.120;2023-05-23T12:54:25;101276.22;;;17.89;54.27
48015;BME280;33780;51.034;7.120;2023-05-23T12:56:50;101273.88;;;17.94;55.95
48015;BME280;33780;51.034;7.120;2023-05-23T12:59:16;101279.94;;;17.88;54.48
48015;BME280;33780;51.034;7.120;2023-05-23T13:01:41;101272.84;;;17.95;55.28
48015;BME280;33780;51.034;7.120;2023-05-23T13:04:06;101276.09;;;18.07;55.94